ADDS METAR Data INFO
IDs: Format: Raw Decoded Include TAF

Data at: 0028 UTC 15 Dec 2017

PHOG 142354Z 03018G26KT 10SM FEW020 SCT035 BKN050 21/18 A3002 RMK AO2 PK WND 04027/2258 RAB01E47 SLP169 P0002 60002 T02060178 10256 20194 56022
PHOG 142254Z 04023KT 10SM FEW035 SCT050 BKN065 24/16 A3003 RMK AO2 PK WND 04029/2223 SLP174 T02440161
PHOG 142240Z 04017KT 10SM FEW035 SCT050 BKN065 24/15 A3004 RMK AO2 PK WND 04029/2223 T02390150
PHOG 142154Z 05017G27KT 10SM FEW035 SCT065 24/16 A3005 RMK AO2 PK WND 04027/2120 SLP182 T02440156
PHOG 142054Z 04021G25KT 10SM SCT035 SCT055 26/16 A3008 RMK AO2 PK WND 03027/2036 SLP192 T02560156 50003
PHOG 141954Z 04020KT 10SM FEW025 SCT045 23/16 A3009 RMK AO2 PK WND 03027/1928 SLP194 T02280161
PHOG 141854Z 03019KT 10SM FEW030 SCT055 22/16 A3009 RMK AO2 PK WND 03029/1814 SLP194 T02170161
PHOG 141754Z 04018KT 10SM FEW035 SCT055 21/15 A3008 RMK AO2 PK WND 03027/1726 SLP189 60002 T02110150 10211 20189 51014
PHOG 141654Z 04019KT 10SM FEW035 SCT060 21/15 A3007 RMK AO2 SLP188 T02060150
PHOG 141554Z 03021KT 10SM FEW025 SCT045 20/16 A3006 RMK AO2 PK WND 02031/1535 SLP183 T02000161
PHOG 141454Z AUTO 02019G24KT 10SM SCT031 OVC055 20/17 A3003 RMK AO2 RAE1358 SLP175 P0000 60002 T02000172 58008 TSNO
PHOG 141354Z AUTO 04018G25KT 6SM -RA BR FEW017 BKN030 OVC055 19/17 A3005 RMK AO2 PK WND 03026/1258 RAB01E16B46 SLP182 P0002 T01940172 TSNO
PHOG 141254Z AUTO 03017KT 10SM OVC060 21/15 A3006 RMK AO2 PK WND 04028/1218 SLP183 T02110150 TSNO
PHOG 141154Z AUTO 02018KT 10SM FEW028 SCT065 21/16 A3006 RMK AO2 PK WND 02028/1122 SLP183 T02110161 10228 20211 55008 TSNO
PHOG 141054Z AUTO 02015KT 10SM SCT038 22/15 A3005 RMK AO2 SLP180 T02170150 TSNO
PHOG 140954Z AUTO 02018KT 10SM FEW040 22/15 A3006 RMK AO2 SLP183 T02170150 402670217 TSNO
PHOG 140854Z 02017KT 10SM FEW040 22/16 A3008 RMK AO2 SLP191 T02220161 51015
PHOG 140754Z 02018KT 10SM FEW040 22/17 A3008 RMK AO2 SLP189 T02220167
PHOG 140654Z 02017KT 10SM FEW040 22/17 A3005 RMK AO2 SLP180 T02220167
PHOG 140554Z 03014KT 10SM FEW040 SCT060 23/15 A3004 RMK AO2 SLP177 T02280150 10267 20228 53016
PHOG 140454Z 02015KT 10SM FEW040 SCT050 BKN065 23/16 A3002 RMK AO2 SLP170 T02280156
PHOG 140354Z 02012KT 10SM FEW040 SCT050 BKN065 23/16 A3001 RMK AO2 SLP167 T02330161
PHOG 140254Z 03012KT 10SM SCT049 24/16 A2999 RMK AO2 SLP161 T02440156 55008
PHOG 140154Z 01012KT 10SM FEW045 SCT055 26/16 A2999 RMK AO2 SLP160 T02560156
PHOG 140054Z 01011KT 10SM FEW040 SCT050 26/15 A3000 RMK AO2 SLP162 T02610150
PHOG 132354Z 01012KT 10SM FEW035 SCT050 26/15 A3002 RMK AO2 SLP169 T02610150 10267 20233 58014
PHOG 132254Z 02014KT 10SM FEW035 SCT050 27/16 A3003 RMK AO2 SLP173 T02670156
PHOG 132154Z 02015KT 10SM FEW035 SCT050 26/16 A3006 RMK AO2 SLP184 T02560156
PHOG 132054Z 01014KT 10SM FEW025 SCT035 BKN060 24/16 A3006 RMK AO2 SLP183 T02440161 50005
PHOG 131954Z 36013KT 10SM SCT022 BKN055 24/16 A3006 RMK AO2 SLP184 T02390161
PHOG 131854Z 02010KT 10SM FEW040 SCT055 24/16 A3004 RMK AO2 SLP178 T02390161
PHOG 131754Z 36013KT 10SM FEW035 SCT050 23/16 A3004 RMK AO2 SLP178 T02330161 10233 20222 53021
PHOG 131654Z 01013KT 10SM SCT035 BKN055 23/17 A3002 RMK AO2 SLP170 T02280167
PHOG 131554Z 01014KT 10SM SCT035 BKN055 23/18 A3000 RMK AO2 SLP164 T02280178
PHOG 131454Z AUTO 01016KT 9SM SCT026 BKN033 OVC041 23/19 A2998 RMK AO2 SLP157 T02280189 55000 TSNO
PHOG 131354Z AUTO 01013KT 9SM SCT026 BKN040 OVC060 23/18 A2997 RMK AO2 SLP155 T02330183 TSNO
PHOG 131254Z AUTO 36010KT 10SM OVC038 23/16 A2997 RMK AO2 SLP155 T02330161 TSNO